sensor_id;sensor_type;location;lat;lon;timestamp;P1;durP1;ratioP1;P2;durP2;ratioP2
73650;SDS011;61944;52.538;6.108;2024-03-07T05:46:42;30.00;;;17.00;;
73650;SDS011;61944;52.538;6.108;2024-03-07T05:49:13;30.63;;;16.23;;
73650;SDS011;61944;52.538;6.108;2024-03-07T05:51:39;31.60;;;17.58;;
73650;SDS011;61944;52.538;6.108;2024-03-07T05:54:07;32.08;;;15.50;;
73650;SDS011;61944;52.538;6.108;2024-03-07T05:56:32;29.25;;;16.65;;
73650;SDS011;61944;52.538;6.108;2024-03-07T05:59:01;31.10;;;16.10;;
73650;SDS011;61944;52.538;6.108;2024-03-07T06:01:29;32.53;;;17.15;;
73650;SDS011;61944;52.538;6.108;2024-03-07T06:03:56;27.50;;;16.50;;
73650;SDS011;61944;52.538;6.108;2024-03-07T06:06:23;28.60;;;16.20;;
73650;SDS011;61944;52.538;6.108;2024-03-07T06:08:49;30.23;;;17.05;;
73650;SDS011;61944;52.538;6.108;2024-03-07T06:11:15;31.23;;;15.82;;
73650;SDS011;61944;52.538;6.108;2024-03-07T06:13:44;26.70;;;15.57;;
73650;SDS011;61944;52.538;6.108;2024-03-07T06:16:11;33.25;;;17.45;;
73650;SDS011;61944;52.538;6.108;2024-03-07T06:18:36;29.70;;;16.02;;
73650;SDS011;61944;52.538;6.108;2024-03-07T06:21:01;32.58;;;16.67;;
73650;SDS011;61944;52.538;6.108;2024-03-07T06:23:29;29.58;;;15.27;;
73650;SDS011;61944;52.538;6.108;2024-03-07T06:25:55;31.10;;;17.00;;
73650;SDS011;61944;52.538;6.108;2024-03-07T06:28:23;27.63;;;14.90;;
73650;SDS011;61944;52.538;6.108;2024-03-07T06:30:49;31.17;;;15.25;;
73650;SDS011;61944;52.538;6.108;2024-03-07T06:33:14;34.40;;;16.52;;
73650;SDS011;61944;52.538;6.108;2024-03-07T06:35:41;30.27;;;15.88;;
73650;SDS011;61944;52.538;6.108;2024-03-07T06:38:07;28.35;;;15.93;;
73650;SDS011;61944;52.538;6.108;2024-03-07T06:40:36;34.70;;;16.67;;
73650;SDS011;61944;52.538;6.108;2024-03-07T06:43:03;27.38;;;15.07;;
73650;SDS011;61944;52.538;6.108;2024-03-07T06:45:29;33.13;;;16.08;;
73650;SDS011;61944;52.538;6.108;2024-03-07T06:47:55;26.88;;;14.68;;
73650;SDS011;61944;52.538;6.108;2024-03-07T06:50:20;30.67;;;15.60;;
73650;SDS011;61944;52.538;6.108;2024-03-07T06:52:46;23.58;;;15.80;;
73650;SDS011;61944;52.538;6.108;2024-03-07T06:55:15;28.85;;;15.27;;
73650;SDS011;61944;52.538;6.108;2024-03-07T06:57:44;25.98;;;14.55;;
73650;SDS011;61944;52.538;6.108;2024-03-07T07:00:14;27.73;;;16.13;;
73650;SDS011;61944;52.538;6.108;2024-03-07T07:02:49;27.30;;;15.57;;
73650;SDS011;61944;52.538;6.108;2024-03-07T07:05:15;32.78;;;17.30;;
73650;SDS011;61944;52.538;6.108;2024-03-07T07:07:43;30.10;;;16.73;;
73650;SDS011;61944;52.538;6.108;2024-03-07T07:10:09;24.63;;;14.38;;
73650;SDS011;61944;52.538;6.108;2024-03-07T07:12:41;30.58;;;15.13;;
73650;SDS011;61944;52.538;6.108;2024-03-07T07:15:08;31.88;;;16.30;;
73650;SDS011;61944;52.538;6.108;2024-03-07T07:17:33;32.25;;;15.27;;
73650;SDS011;61944;52.538;6.108;2024-03-07T07:19:58;24.60;;;15.93;;
73650;SDS011;61944;52.538;6.108;2024-03-07T07:22:25;28.75;;;16.67;;
73650;SDS011;61944;52.538;6.108;2024-03-07T07:24:50;30.90;;;16.80;;
73650;SDS011;61944;52.538;6.108;2024-03-07T07:27:16;28.27;;;15.93;;
73650;SDS011;61944;52.538;6.108;2024-03-07T07:29:41;26.52;;;14.40;;
73650;SDS011;61944;52.538;6.108;2024-03-07T07:32:06;27.35;;;15.63;;
73650;SDS011;61944;52.538;6.108;2024-03-07T07:34:32;30.05;;;16.50;;
73650;SDS011;61944;52.538;6.108;2024-03-07T07:36:58;31.08;;;16.05;;
73650;SDS011;61944;52.538;6.108;2024-03-07T07:39:24;27.63;;;14.80;;
73650;SDS011;61944;52.538;6.108;2024-03-07T07:41:49;30.40;;;16.35;;
73650;SDS011;61944;52.538;6.108;2024-03-07T07:44:15;31.15;;;15.02;;
73650;SDS011;61944;52.538;6.108;2024-03-07T07:46:41;31.48;;;15.70;;
73650;SDS011;61944;52.538;6.108;2024-03-07T07:49:06;29.55;;;15.00;;
73650;SDS011;61944;52.538;6.108;2024-03-07T07:51:31;31.02;;;16.63;;
73650;SDS011;61944;52.538;6.108;2024-03-07T07:53:57;32.90;;;14.93;;
73650;SDS011;61944;52.538;6.108;2024-03-07T07:56:23;27.88;;;16.13;;
73650;SDS011;61944;52.538;6.108;2024-03-07T07:58:49;28.90;;;15.32;;
73650;SDS011;61944;52.538;6.108;2024-03-07T08:01:16;29.80;;;16.08;;
73650;SDS011;61944;52.538;6.108;2024-03-07T08:03:44;28.02;;;15.80;;
73650;SDS011;61944;52.538;6.108;2024-03-07T08:06:10;32.90;;;16.65;;
73650;SDS011;61944;52.538;6.108;2024-03-07T08:08:35;31.92;;;16.23;;
73650;SDS011;61944;52.538;6.108;2024-03-07T08:11:01;27.88;;;16.98;;
73650;SDS011;61944;52.538;6.108;2024-03-07T08:13:26;27.55;;;15.90;;
73650;SDS011;61944;52.538;6.108;2024-03-07T08:15:52;28.70;;;15.43;;
73650;SDS011;61944;52.538;6.108;2024-03-07T08:18:19;28.00;;;16.05;;
73650;SDS011;61944;52.538;6.108;2024-03-07T08:20:45;28.50;;;16.40;;
73650;SDS011;61944;52.538;6.108;2024-03-07T08:23:10;27.13;;;15.55;;
73650;SDS011;61944;52.538;6.108;2024-03-07T08:25:38;31.95;;;15.18;;
73650;SDS011;61944;52.538;6.108;2024-03-07T08:28:07;34.20;;;15.82;;
73650;SDS011;61944;52.538;6.108;2024-03-07T08:30:32;29.25;;;16.83;;
73650;SDS011;61944;52.538;6.108;2024-03-07T08:32:58;29.75;;;14.95;;
73650;SDS011;61944;52.538;6.108;2024-03-07T08:35:24;30.00;;;15.27;;
73650;SDS011;61944;52.538;6.108;2024-03-07T08:37:50;31.27;;;15.18;;
73650;SDS011;61944;52.538;6.108;2024-03-07T08:40:23;28.30;;;16.08;;
73650;SDS011;61944;52.538;6.108;2024-03-07T08:42:56;27.05;;;15.80;;
73650;SDS011;61944;52.538;6.108;2024-03-07T08:45:22;35.63;;;14.48;;
73650;SDS011;61944;52.538;6.108;2024-03-07T08:47:49;29.40;;;15.77;;
73650;SDS011;61944;52.538;6.108;2024-03-07T08:50:15;37.05;;;16.17;;
73650;SDS011;61944;52.538;6.108;2024-03-07T08:52:43;26.25;;;14.60;;
73650;SDS011;61944;52.538;6.108;2024-03-07T08:55:09;29.63;;;15.90;;
73650;SDS011;61944;52.538;6.108;2024-03-07T08:57:37;27.98;;;15.60;;
73650;SDS011;61944;52.538;6.108;2024-03-07T09:00:04;28.48;;;16.10;;
73650;SDS011;61944;52.538;6.108;2024-03-07T09:02:40;28.52;;;16.58;;
73650;SDS011;61944;52.538;6.108;2024-03-07T09:05:07;26.48;;;14.77;;
73650;SDS011;61944;52.538;6.108;2024-03-07T09:07:35;31.77;;;16.25;;
73650;SDS011;61944;52.538;6.108;2024-03-07T09:10:00;32.40;;;16.75;;
73650;SDS011;61944;52.538;6.108;2024-03-07T09:12:26;30.75;;;16.23;;
73650;SDS011;61944;52.538;6.108;2024-03-07T09:14:51;31.05;;;15.82;;
73650;SDS011;61944;52.538;6.108;2024-03-07T09:17:23;32.50;;;16.65;;
73650;SDS011;61944;52.538;6.108;2024-03-07T09:19:49;32.47;;;16.10;;
73650;SDS011;61944;52.538;6.108;2024-03-07T09:22:14;30.48;;;16.83;;
73650;SDS011;61944;52.538;6.108;2024-03-07T09:24:40;28.38;;;16.13;;
73650;SDS011;61944;52.538;6.108;2024-03-07T09:27:06;29.08;;;15.85;;
73650;SDS011;61944;52.538;6.108;2024-03-07T09:29:31;29.50;;;15.95;;
73650;SDS011;61944;52.538;6.108;2024-03-07T09:31:57;29.75;;;15.55;;
73650;SDS011;61944;52.538;6.108;2024-03-07T09:34:22;33.45;;;18.40;;
73650;SDS011;61944;52.538;6.108;2024-03-07T09:36:48;32.40;;;16.08;;
73650;SDS011;61944;52.538;6.108;2024-03-07T09:39:14;30.45;;;15.75;;
73650;SDS011;61944;52.538;6.108;2024-03-07T09:41:41;26.98;;;14.95;;
73650;SDS011;61944;52.538;6.108;2024-03-07T09:44:07;33.88;;;16.75;;
73650;SDS011;61944;52.538;6.108;2024-03-07T09:46:36;33.20;;;16.98;;
73650;SDS011;61944;52.538;6.108;2024-03-07T09:49:02;26.90;;;15.30;;
73650;SDS011;61944;52.538;6.108;2024-03-07T09:51:31;30.15;;;16.58;;
73650;SDS011;61944;52.538;6.108;2024-03-07T09:53:57;31.33;;;17.23;;
73650;SDS011;61944;52.538;6.108;2024-03-07T09:56:24;36.90;;;19.10;;
73650;SDS011;61944;52.538;6.108;2024-03-07T09:58:51;30.25;;;18.45;;
73650;SDS011;61944;52.538;6.108;2024-03-07T10:01:22;35.60;;;18.30;;
73650;SDS011;61944;52.538;6.108;2024-03-07T10:03:54;34.33;;;18.33;;
73650;SDS011;61944;52.538;6.108;2024-03-07T10:06:23;37.17;;;20.33;;
73650;SDS011;61944;52.538;6.108;2024-03-07T10:08:48;34.13;;;19.08;;
73650;SDS011;61944;52.538;6.108;2024-03-07T10:11:15;40.78;;;21.25;;
73650;SDS011;61944;52.538;6.108;2024-03-07T10:13:40;37.88;;;21.00;;
73650;SDS011;61944;52.538;6.108;2024-03-07T10:16:06;46.42;;;22.05;;
73650;SDS011;61944;52.538;6.108;2024-03-07T10:18:33;37.92;;;21.65;;
73650;SDS011;61944;52.538;6.108;2024-03-07T10:21:06;33.42;;;19.10;;
73650;SDS011;61944;52.538;6.108;2024-03-07T10:23:31;40.58;;;20.25;;
73650;SDS011;61944;52.538;6.108;2024-03-07T10:25:58;39.75;;;23.08;;
73650;SDS011;61944;52.538;6.108;2024-03-07T10:28:25;40.35;;;21.50;;
73650;SDS011;61944;52.538;6.108;2024-03-07T10:30:51;40.70;;;21.45;;
73650;SDS011;61944;52.538;6.108;2024-03-07T10:33:17;38.80;;;21.40;;
73650;SDS011;61944;52.538;6.108;2024-03-07T10:35:42;39.65;;;20.13;;
73650;SDS011;61944;52.538;6.108;2024-03-07T10:38:11;36.50;;;19.65;;
73650;SDS011;61944;52.538;6.108;2024-03-07T10:40:37;35.55;;;20.75;;
73650;SDS011;61944;52.538;6.108;2024-03-07T10:43:07;37.25;;;19.10;;
73650;SDS011;61944;52.538;6.108;2024-03-07T10:45:35;37.17;;;19.52;;
73650;SDS011;61944;52.538;6.108;2024-03-07T10:48:13;42.88;;;21.30;;
73650;SDS011;61944;52.538;6.108;2024-03-07T10:53:15;49.38;;;20.00;;
73650;SDS011;61944;52.538;6.108;2024-03-07T10:58:51;40.75;;;19.88;;
73650;SDS011;61944;52.538;6.108;2024-03-07T11:01:18;40.10;;;20.27;;
73650;SDS011;61944;52.538;6.108;2024-03-07T11:03:45;35.22;;;17.85;;
73650;SDS011;61944;52.538;6.108;2024-03-07T11:06:11;40.33;;;19.13;;
73650;SDS011;61944;52.538;6.108;2024-03-07T11:08:38;44.45;;;20.77;;
73650;SDS011;61944;52.538;6.108;2024-03-07T11:11:04;40.47;;;18.58;;
73650;SDS011;61944;52.538;6.108;2024-03-07T11:13:31;32.15;;;18.02;;
73650;SDS011;61944;52.538;6.108;2024-03-07T11:15:59;44.10;;;21.50;;
73650;SDS011;61944;52.538;6.108;2024-03-07T11:18:26;40.28;;;19.05;;
73650;SDS011;61944;52.538;6.108;2024-03-07T11:20:52;41.65;;;22.23;;
73650;SDS011;61944;52.538;6.108;2024-03-07T11:26:05;41.15;;;18.60;;
73650;SDS011;61944;52.538;6.108;2024-03-07T11:28:38;43.78;;;20.30;;
73650;SDS011;61944;52.538;6.108;2024-03-07T11:31:13;36.38;;;18.88;;
73650;SDS011;61944;52.538;6.108;2024-03-07T11:33:40;33.35;;;18.48;;
73650;SDS011;61944;52.538;6.108;2024-03-07T11:36:10;31.52;;;17.42;;
73650;SDS011;61944;52.538;6.108;2024-03-07T11:38:45;33.25;;;18.88;;
73650;SDS011;61944;52.538;6.108;2024-03-07T11:41:13;36.05;;;18.38;;
73650;SDS011;61944;52.538;6.108;2024-03-07T11:43:40;30.23;;;17.60;;
73650;SDS011;61944;52.538;6.108;2024-03-07T11:46:07;39.67;;;18.88;;
73650;SDS011;61944;52.538;6.108;2024-03-07T11:48:38;36.10;;;17.98;;
73650;SDS011;61944;52.538;6.108;2024-03-07T11:51:06;38.00;;;20.10;;
73650;SDS011;61944;52.538;6.108;2024-03-07T11:53:35;31.20;;;16.55;;
73650;SDS011;61944;52.538;6.108;2024-03-07T11:56:03;39.88;;;19.10;;
73650;SDS011;61944;52.538;6.108;2024-03-07T11:58:37;29.27;;;16.92;;
73650;SDS011;61944;52.538;6.108;2024-03-07T12:01:08;33.83;;;16.95;;
73650;SDS011;61944;52.538;6.108;2024-03-07T12:03:38;30.75;;;17.08;;
73650;SDS011;61944;52.538;6.108;2024-03-07T12:06:04;33.95;;;17.00;;
73650;SDS011;61944;52.538;6.108;2024-03-07T12:08:29;36.53;;;18.65;;
73650;SDS011;61944;52.538;6.108;2024-03-07T12:10:55;31.35;;;16.55;;
73650;SDS011;61944;52.538;6.108;2024-03-07T12:13:21;34.38;;;18.02;;
73650;SDS011;61944;52.538;6.108;2024-03-07T12:15:47;38.83;;;18.02;;
73650;SDS011;61944;52.538;6.108;2024-03-07T12:18:16;30.50;;;16.88;;
73650;SDS011;61944;52.538;6.108;2024-03-07T12:20:42;33.75;;;16.85;;
73650;SDS011;61944;52.538;6.108;2024-03-07T12:23:14;32.10;;;15.45;;
73650;SDS011;61944;52.538;6.108;2024-03-07T12:25:44;29.35;;;16.92;;
73650;SDS011;61944;52.538;6.108;2024-03-07T12:28:11;28.83;;;15.55;;
73650;SDS011;61944;52.538;6.108;2024-03-07T12:33:16;29.38;;;16.15;;
73650;SDS011;61944;52.538;6.108;2024-03-07T12:35:46;28.55;;;16.30;;
73650;SDS011;61944;52.538;6.108;2024-03-07T12:38:13;25.65;;;14.48;;
73650;SDS011;61944;52.538;6.108;2024-03-07T12:40:41;30.75;;;16.17;;
73650;SDS011;61944;52.538;6.108;2024-03-07T12:43:21;26.15;;;14.75;;
73650;SDS011;61944;52.538;6.108;2024-03-07T12:45:53;35.75;;;16.02;;
73650;SDS011;61944;52.538;6.108;2024-03-07T12:48:19;31.20;;;15.85;;
73650;SDS011;61944;52.538;6.108;2024-03-07T12:50:48;25.85;;;15.40;;
73650;SDS011;61944;52.538;6.108;2024-03-07T12:53:24;24.95;;;14.32;;
73650;SDS011;61944;52.538;6.108;2024-03-07T12:55:54;31.50;;;16.92;;
73650;SDS011;61944;52.538;6.108;2024-03-07T12:58:19;30.48;;;16.15;;
73650;SDS011;61944;52.538;6.108;2024-03-07T13:00:47;29.80;;;15.20;;
73650;SDS011;61944;52.538;6.108;2024-03-07T13:03:12;27.13;;;14.90;;
73650;SDS011;61944;52.538;6.108;2024-03-07T13:05:40;28.30;;;14.43;;
73650;SDS011;61944;52.538;6.108;2024-03-07T13:08:07;28.52;;;16.65;;
73650;SDS011;61944;52.538;6.108;2024-03-07T13:10:37;24.40;;;14.23;;
73650;SDS011;61944;52.538;6.108;2024-03-07T13:13:03;28.67;;;14.27;;
73650;SDS011;61944;52.538;6.108;2024-03-07T13:15:29;34.92;;;17.10;;
73650;SDS011;61944;52.538;6.108;2024-03-07T13:17:55;29.40;;;16.13;;
73650;SDS011;61944;52.538;6.108;2024-03-07T13:20:20;31.50;;;15.23;;
73650;SDS011;61944;52.538;6.108;2024-03-07T13:22:51;29.77;;;16.48;;
73650;SDS011;61944;52.538;6.108;2024-03-07T13:25:17;27.92;;;15.90;;
73650;SDS011;61944;52.538;6.108;2024-03-07T13:30:25;28.02;;;14.38;;
73650;SDS011;61944;52.538;6.108;2024-03-07T13:32:57;34.92;;;15.57;;
73650;SDS011;61944;52.538;6.108;2024-03-07T13:35:24;30.88;;;16.45;;
73650;SDS011;61944;52.538;6.108;2024-03-07T13:37:53;33.58;;;15.73;;
73650;SDS011;61944;52.538;6.108;2024-03-07T13:40:20;29.55;;;15.52;;
73650;SDS011;61944;52.538;6.108;2024-03-07T13:42:56;29.55;;;14.98;;
73650;SDS011;61944;52.538;6.108;2024-03-07T13:45:29;33.13;;;16.27;;
73650;SDS011;61944;52.538;6.108;2024-03-07T13:47:56;31.30;;;15.77;;
73650;SDS011;61944;52.538;6.108;2024-03-07T13:50:25;33.67;;;16.63;;
73650;SDS011;61944;52.538;6.108;2024-03-07T13:52:53;34.47;;;14.90;;
73650;SDS011;61944;52.538;6.108;2024-03-07T14:32:48;29.88;;;15.07;;
73650;SDS011;61944;52.538;6.108;2024-03-07T14:35:22;32.53;;;16.85;;
73650;SDS011;61944;52.538;6.108;2024-03-07T14:37:53;37.17;;;17.55;;
73650;SDS011;61944;52.538;6.108;2024-03-07T14:40:19;28.10;;;15.55;;
73650;SDS011;61944;52.538;6.108;2024-03-07T14:42:47;33.47;;;16.63;;
73650;SDS011;61944;52.538;6.108;2024-03-07T14:45:21;32.63;;;16.85;;
73650;SDS011;61944;52.538;6.108;2024-03-07T14:47:51;30.23;;;15.73;;
73650;SDS011;61944;52.538;6.108;2024-03-07T14:50:20;32.60;;;15.93;;
73650;SDS011;61944;52.538;6.108;2024-03-07T14:52:47;37.05;;;17.08;;
73650;SDS011;61944;52.538;6.108;2024-03-07T14:55:13;32.30;;;16.40;;
73650;SDS011;61944;52.538;6.108;2024-03-07T14:57:39;35.15;;;16.40;;
73650;SDS011;61944;52.538;6.108;2024-03-07T15:00:06;29.65;;;14.82;;
73650;SDS011;61944;52.538;6.108;2024-03-07T15:02:43;33.92;;;15.63;;
73650;SDS011;61944;52.538;6.108;2024-03-07T15:05:11;30.65;;;15.80;;
73650;SDS011;61944;52.538;6.108;2024-03-07T15:07:36;32.50;;;16.05;;
73650;SDS011;61944;52.538;6.108;2024-03-07T15:10:02;35.70;;;16.00;;
73650;SDS011;61944;52.538;6.108;2024-03-07T15:12:32;29.83;;;15.43;;
73650;SDS011;61944;52.538;6.108;2024-03-07T15:14:58;29.60;;;16.13;;
73650;SDS011;61944;52.538;6.108;2024-03-07T15:17:23;29.55;;;15.52;;
73650;SDS011;61944;52.538;6.108;2024-03-07T15:19:48;33.70;;;15.88;;
73650;SDS011;61944;52.538;6.108;2024-03-07T15:22:14;32.83;;;13.85;;
73650;SDS011;61944;52.538;6.108;2024-03-07T15:24:41;30.95;;;15.45;;
73650;SDS011;61944;52.538;6.108;2024-03-07T15:27:06;31.08;;;15.25;;
73650;SDS011;61944;52.538;6.108;2024-03-07T15:29:32;33.53;;;16.05;;
73650;SDS011;61944;52.538;6.108;2024-03-07T15:31:57;35.83;;;15.73;;
73650;SDS011;61944;52.538;6.108;2024-03-07T15:34:23;29.73;;;15.15;;
73650;SDS011;61944;52.538;6.108;2024-03-07T15:36:49;29.85;;;16.13;;
73650;SDS011;61944;52.538;6.108;2024-03-07T15:39:27;30.27;;;14.32;;
73650;SDS011;61944;52.538;6.108;2024-03-07T15:41:55;23.80;;;13.93;;
73650;SDS011;61944;52.538;6.108;2024-03-07T15:44:20;40.50;;;15.68;;
73650;SDS011;61944;52.538;6.108;2024-03-07T15:46:46;30.85;;;13.95;;
73650;SDS011;61944;52.538;6.108;2024-03-07T15:49:11;30.38;;;13.98;;
73650;SDS011;61944;52.538;6.108;2024-03-07T15:51:38;32.28;;;14.80;;
73650;SDS011;61944;52.538;6.108;2024-03-07T15:54:04;29.33;;;14.73;;
73650;SDS011;61944;52.538;6.108;2024-03-07T15:56:29;30.17;;;14.85;;
73650;SDS011;61944;52.538;6.108;2024-03-07T15:58:55;31.23;;;15.98;;
73650;SDS011;61944;52.538;6.108;2024-03-07T16:01:20;31.35;;;16.02;;
73650;SDS011;61944;52.538;6.108;2024-03-07T16:03:46;34.70;;;14.25;;
73650;SDS011;61944;52.538;6.108;2024-03-07T16:06:12;28.58;;;13.52;;
73650;SDS011;61944;52.538;6.108;2024-03-07T16:08:41;31.30;;;14.73;;
73650;SDS011;61944;52.538;6.108;2024-03-07T16:11:06;32.70;;;16.33;;
73650;SDS011;61944;52.538;6.108;2024-03-07T16:13:32;30.40;;;14.27;;
73650;SDS011;61944;52.538;6.108;2024-03-07T16:15:58;36.40;;;14.90;;
73650;SDS011;61944;52.538;6.108;2024-03-07T16:18:23;36.95;;;15.75;;
73650;SDS011;61944;52.538;6.108;2024-03-07T16:20:51;33.33;;;14.60;;
73650;SDS011;61944;52.538;6.108;2024-03-07T16:23:16;29.65;;;15.75;;
73650;SDS011;61944;52.538;6.108;2024-03-07T16:25:41;31.27;;;15.40;;
73650;SDS011;61944;52.538;6.108;2024-03-07T16:28:07;32.67;;;13.35;;
73650;SDS011;61944;52.538;6.108;2024-03-07T16:30:36;31.42;;;14.68;;
73650;SDS011;61944;52.538;6.108;2024-03-07T16:33:02;40.78;;;14.38;;
73650;SDS011;61944;52.538;6.108;2024-03-07T16:35:29;34.58;;;14.85;;
73650;SDS011;61944;52.538;6.108;2024-03-07T16:37:58;31.95;;;14.63;;
73650;SDS011;61944;52.538;6.108;2024-03-07T16:40:25;28.75;;;14.02;;
73650;SDS011;61944;52.538;6.108;2024-03-07T16:42:52;32.65;;;14.38;;
73650;SDS011;61944;52.538;6.108;2024-03-07T16:45:26;31.75;;;16.27;;
73650;SDS011;61944;52.538;6.108;2024-03-07T16:47:53;30.67;;;14.85;;
73650;SDS011;61944;52.538;6.108;2024-03-07T16:50:21;31.05;;;14.52;;
73650;SDS011;61944;52.538;6.108;2024-03-07T16:52:52;40.50;;;17.13;;
73650;SDS011;61944;52.538;6.108;2024-03-07T16:55:18;38.97;;;17.00;;
73650;SDS011;61944;52.538;6.108;2024-03-07T16:57:44;28.70;;;15.43;;
73650;SDS011;61944;52.538;6.108;2024-03-07T17:00:12;36.75;;;17.33;;
73650;SDS011;61944;52.538;6.108;2024-03-07T17:02:54;34.88;;;18.13;;
73650;SDS011;61944;52.538;6.108;2024-03-07T17:05:40;36.75;;;15.57;;
73650;SDS011;61944;52.538;6.108;2024-03-07T17:08:08;32.78;;;15.02;;
73650;SDS011;61944;52.538;6.108;2024-03-07T17:10:37;32.58;;;14.70;;
73650;SDS011;61944;52.538;6.108;2024-03-07T17:13:05;30.40;;;14.93;;
73650;SDS011;61944;52.538;6.108;2024-03-07T17:15:35;27.58;;;14.05;;
73650;SDS011;61944;52.538;6.108;2024-03-07T17:18:02;32.05;;;14.88;;
73650;SDS011;61944;52.538;6.108;2024-03-07T17:20:29;32.78;;;14.55;;
73650;SDS011;61944;52.538;6.108;2024-03-07T17:22:56;26.55;;;13.90;;
73650;SDS011;61944;52.538;6.108;2024-03-07T17:25:23;30.45;;;15.25;;
73650;SDS011;61944;52.538;6.108;2024-03-07T17:27:50;30.17;;;14.40;;
73650;SDS011;61944;52.538;6.108;2024-03-07T17:30:21;30.63;;;14.82;;
73650;SDS011;61944;52.538;6.108;2024-03-07T17:32:47;27.23;;;13.95;;
73650;SDS011;61944;52.538;6.108;2024-03-07T17:35:14;26.88;;;13.95;;
73650;SDS011;61944;52.538;6.108;2024-03-07T17:37:41;30.30;;;13.70;;
73650;SDS011;61944;52.538;6.108;2024-03-07T17:40:09;30.00;;;15.13;;
73650;SDS011;61944;52.538;6.108;2024-03-07T17:42:40;31.45;;;13.77;;
73650;SDS011;61944;52.538;6.108;2024-03-07T17:45:08;28.17;;;13.68;;
73650;SDS011;61944;52.538;6.108;2024-03-07T17:47:36;29.90;;;15.65;;
73650;SDS011;61944;52.538;6.108;2024-03-07T17:50:05;31.17;;;14.60;;
73650;SDS011;61944;52.538;6.108;2024-03-07T17:52:31;33.28;;;14.20;;
73650;SDS011;61944;52.538;6.108;2024-03-07T17:54:59;34.90;;;17.05;;
73650;SDS011;61944;52.538;6.108;2024-03-07T17:57:25;27.92;;;14.48;;
73650;SDS011;61944;52.538;6.108;2024-03-07T17:59:53;29.38;;;13.43;;
73650;SDS011;61944;52.538;6.108;2024-03-07T18:02:19;32.55;;;16.00;;
73650;SDS011;61944;52.538;6.108;2024-03-07T18:04:45;32.45;;;15.07;;
73650;SDS011;61944;52.538;6.108;2024-03-07T18:07:17;30.17;;;15.15;;
73650;SDS011;61944;52.538;6.108;2024-03-07T18:09:43;28.50;;;13.90;;
73650;SDS011;61944;52.538;6.108;2024-03-07T18:12:08;27.85;;;15.02;;
73650;SDS011;61944;52.538;6.108;2024-03-07T18:14:39;31.92;;;15.57;;
73650;SDS011;61944;52.538;6.108;2024-03-07T18:17:06;25.75;;;13.52;;
73650;SDS011;61944;52.538;6.108;2024-03-07T18:19:31;27.20;;;13.90;;
73650;SDS011;61944;52.538;6.108;2024-03-07T18:21:59;32.63;;;16.40;;
73650;SDS011;61944;52.538;6.108;2024-03-07T18:24:25;27.58;;;12.90;;
73650;SDS011;61944;52.538;6.108;2024-03-07T18:26:52;29.17;;;13.63;;
73650;SDS011;61944;52.538;6.108;2024-03-07T18:29:18;29.73;;;14.35;;
73650;SDS011;61944;52.538;6.108;2024-03-07T18:31:45;32.17;;;15.20;;
73650;SDS011;61944;52.538;6.108;2024-03-07T18:34:11;25.48;;;13.98;;
73650;SDS011;61944;52.538;6.108;2024-03-07T18:36:38;29.17;;;14.45;;
73650;SDS011;61944;52.538;6.108;2024-03-07T18:39:04;29.25;;;13.93;;
73650;SDS011;61944;52.538;6.108;2024-03-07T18:41:40;24.13;;;12.25;;
73650;SDS011;61944;52.538;6.108;2024-03-07T18:44:07;27.85;;;13.32;;
73650;SDS011;61944;52.538;6.108;2024-03-07T18:46:33;25.75;;;13.63;;
73650;SDS011;61944;52.538;6.108;2024-03-07T18:48:59;25.55;;;12.50;;
73650;SDS011;61944;52.538;6.108;2024-03-07T18:51:24;24.95;;;12.23;;
73650;SDS011;61944;52.538;6.108;2024-03-07T18:53:50;26.02;;;12.65;;
73650;SDS011;61944;52.538;6.108;2024-03-07T18:56:16;32.47;;;13.25;;
73650;SDS011;61944;52.538;6.108;2024-03-07T18:58:45;29.63;;;13.65;;
73650;SDS011;61944;52.538;6.108;2024-03-07T19:01:10;23.35;;;14.68;;
73650;SDS011;61944;52.538;6.108;2024-03-07T19:03:36;26.83;;;13.65;;
73650;SDS011;61944;52.538;6.108;2024-03-07T19:06:01;26.33;;;12.95;;
73650;SDS011;61944;52.538;6.108;2024-03-07T19:08:27;25.73;;;14.88;;
73650;SDS011;61944;52.538;6.108;2024-03-07T19:10:55;29.70;;;13.82;;
73650;SDS011;61944;52.538;6.108;2024-03-07T19:13:24;32.25;;;14.68;;
73650;SDS011;61944;52.538;6.108;2024-03-07T19:15:51;33.15;;;15.30;;
73650;SDS011;61944;52.538;6.108;2024-03-07T19:18:17;27.02;;;14.20;;
73650;SDS011;61944;52.538;6.108;2024-03-07T19:20:44;28.38;;;15.02;;
73650;SDS011;61944;52.538;6.108;2024-03-07T19:23:11;26.42;;;14.23;;
73650;SDS011;61944;52.538;6.108;2024-03-07T19:25:37;25.48;;;14.32;;
73650;SDS011;61944;52.538;6.108;2024-03-07T19:28:04;29.70;;;14.70;;
73650;SDS011;61944;52.538;6.108;2024-03-07T19:30:36;33.33;;;14.68;;
73650;SDS011;61944;52.538;6.108;2024-03-07T19:33:02;28.15;;;13.95;;
73650;SDS011;61944;52.538;6.108;2024-03-07T19:35:32;31.50;;;14.40;;
73650;SDS011;61944;52.538;6.108;2024-03-07T19:37:58;28.20;;;13.73;;
73650;SDS011;61944;52.538;6.108;2024-03-07T19:40:23;33.92;;;16.65;;
73650;SDS011;61944;52.538;6.108;2024-03-07T19:42:48;32.75;;;15.35;;
73650;SDS011;61944;52.538;6.108;2024-03-07T19:45:15;30.40;;;15.15;;
73650;SDS011;61944;52.538;6.108;2024-03-07T19:47:44;35.17;;;14.93;;
73650;SDS011;61944;52.538;6.108;2024-03-07T19:50:10;26.52;;;14.35;;
73650;SDS011;61944;52.538;6.108;2024-03-07T19:52:39;27.50;;;14.73;;
73650;SDS011;61944;52.538;6.108;2024-03-07T19:55:04;26.27;;;14.02;;
73650;SDS011;61944;52.538;6.108;2024-03-07T19:57:30;30.77;;;15.57;;
73650;SDS011;61944;52.538;6.108;2024-03-07T19:59:58;31.08;;;16.52;;
73650;SDS011;61944;52.538;6.108;2024-03-07T20:02:24;35.05;;;16.42;;
73650;SDS011;61944;52.538;6.108;2024-03-07T20:04:50;29.95;;;15.25;;
73650;SDS011;61944;52.538;6.108;2024-03-07T20:07:16;29.70;;;15.20;;
73650;SDS011;61944;52.538;6.108;2024-03-07T20:09:42;28.80;;;14.85;;
73650;SDS011;61944;52.538;6.108;2024-03-07T20:12:08;30.13;;;15.65;;
73650;SDS011;61944;52.538;6.108;2024-03-07T20:14:34;29.58;;;14.48;;
73650;SDS011;61944;52.538;6.108;2024-03-07T20:16:59;37.17;;;15.18;;
73650;SDS011;61944;52.538;6.108;2024-03-07T20:19:24;32.10;;;16.00;;
73650;SDS011;61944;52.538;6.108;2024-03-07T20:21:52;31.27;;;15.23;;
73650;SDS011;61944;52.538;6.108;2024-03-07T20:24:19;37.72;;;16.15;;
73650;SDS011;61944;52.538;6.108;2024-03-07T20:26:44;38.17;;;18.98;;
73650;SDS011;61944;52.538;6.108;2024-03-07T20:29:13;35.00;;;17.60;;
73650;SDS011;61944;52.538;6.108;2024-03-07T20:31:39;36.00;;;16.55;;
73650;SDS011;61944;52.538;6.108;2024-03-07T20:34:04;38.33;;;17.35;;
73650;SDS011;61944;52.538;6.108;2024-03-07T20:36:30;36.30;;;15.75;;
73650;SDS011;61944;52.538;6.108;2024-03-07T20:38:59;32.60;;;16.10;;
73650;SDS011;61944;52.538;6.108;2024-03-07T20:41:33;36.67;;;16.25;;
73650;SDS011;61944;52.538;6.108;2024-03-07T20:43:59;34.55;;;16.40;;
73650;SDS011;61944;52.538;6.108;2024-03-07T20:46:28;31.15;;;14.95;;
73650;SDS011;61944;52.538;6.108;2024-03-07T20:48:54;37.25;;;18.13;;
73650;SDS011;61944;52.538;6.108;2024-03-07T20:51:20;35.75;;;18.00;;
73650;SDS011;61944;52.538;6.108;2024-03-07T20:53:47;30.40;;;16.17;;
73650;SDS011;61944;52.538;6.108;2024-03-07T20:56:17;36.22;;;16.20;;
73650;SDS011;61944;52.538;6.108;2024-03-07T20:58:42;34.85;;;17.35;;